createdAt,value
2018-05-29T00:00:46.875Z,0
2018-05-29T00:01:46.964Z,0
2018-05-29T00:02:46.369Z,0
2018-05-29T00:03:46.886Z,0
2018-05-29T00:04:46.388Z,0
2018-05-29T00:05:46.887Z,0
2018-05-29T00:06:46.490Z,0
2018-05-29T00:07:46.386Z,0
2018-05-29T00:08:46.438Z,0
2018-05-29T00:09:46.377Z,0
2018-05-29T00:10:46.939Z,0
2018-05-29T00:11:46.393Z,0
2018-05-29T00:12:46.902Z,0
2018-05-29T00:13:46.920Z,0
2018-05-29T00:14:46.443Z,0
2018-05-29T00:15:46.457Z,0
2018-05-29T00:16:46.663Z,0
2018-05-29T00:17:46.906Z,0
2018-05-29T00:18:46.716Z,0
2018-05-29T00:19:47.229Z,0
2018-05-29T00:20:46.412Z,0
2018-05-29T00:21:46.929Z,0
2018-05-29T00:22:46.402Z,0
2018-05-29T00:23:46.681Z,0
2018-05-29T00:24:46.951Z,0
2018-05-29T00:25:46.447Z,0
2018-05-29T00:26:46.687Z,0
2018-05-29T00:27:46.442Z,0
2018-05-29T00:28:46.452Z,0
2018-05-29T00:29:46.740Z,0
2018-05-29T00:30:46.944Z,0
2018-05-29T00:31:46.454Z,0
2018-05-29T00:32:46.688Z,0
2018-05-29T00:33:46.447Z,0
2018-05-29T00:34:47.008Z,0
2018-05-29T00:35:46.445Z,0
2018-05-29T00:36:46.738Z,0
2018-05-29T00:37:46.713Z,0
2018-05-29T00:38:46.704Z,0
2018-05-29T00:39:46.180Z,0
2018-05-29T00:40:46.967Z,0
2018-05-29T00:41:46.464Z,0
2018-05-29T00:42:46.726Z,0
2018-05-29T00:43:46.983Z,0
2018-05-29T00:44:46.992Z,0
2018-05-29T00:45:46.987Z,0
2018-05-29T00:46:46.731Z,0
2018-05-29T00:47:46.469Z,0
2018-05-29T00:48:46.466Z,0
2018-05-29T00:49:46.724Z,0
2018-05-29T00:50:47.004Z,0
2018-05-29T00:51:46.494Z,0
2018-05-29T00:52:46.739Z,0
2018-05-29T00:53:47.015Z,0
2018-05-29T00:54:46.740Z,0
2018-05-29T00:55:46.222Z,0
2018-05-29T00:56:46.492Z,0
2018-05-29T00:57:46.755Z,0
2018-05-29T00:58:46.759Z,0
2018-05-29T00:59:46.262Z,0
2018-05-29T01:00:46.758Z,0
2018-05-29T01:01:47.008Z,0
2018-05-29T01:02:46.760Z,0
2018-05-29T01:03:46.757Z,0
2018-05-29T01:04:47.026Z,0
2018-05-29T01:05:46.779Z,0
2018-05-29T01:06:46.770Z,0
2018-05-29T01:07:46.513Z,0
2018-05-29T01:08:46.526Z,0
2018-05-29T01:09:46.769Z,0
2018-05-29T01:10:46.787Z,0
2018-05-29T01:11:46.799Z,0
2018-05-29T01:12:46.847Z,0
2018-05-29T01:13:46.776Z,0
2018-05-29T01:14:46.529Z,0
2018-05-29T01:15:46.540Z,0
2018-05-29T01:16:46.547Z,0
2018-05-29T01:17:46.783Z,0
2018-05-29T01:18:46.531Z,0
2018-05-29T01:19:46.532Z,0
2018-05-29T01:20:47.120Z,0
2018-05-29T01:21:46.538Z,0
2018-05-29T01:22:46.792Z,0
2018-05-29T01:23:46.820Z,0
2018-05-29T01:24:46.593Z,0
2018-05-29T01:25:46.812Z,0
2018-05-29T01:26:46.811Z,0
2018-05-29T01:27:46.291Z,0
2018-05-29T01:28:46.548Z,0
2018-05-29T01:29:46.563Z,0
2018-05-29T01:30:47.067Z,0
2018-05-29T01:31:46.824Z,0
2018-05-29T01:32:47.085Z,0
2018-05-29T01:33:47.087Z,0
2018-05-29T01:34:46.842Z,0
2018-05-29T01:35:47.633Z,0
2018-05-29T01:36:46.611Z,0
2018-05-29T01:37:46.586Z,0
2018-05-29T01:38:46.575Z,0
2018-05-29T01:39:46.575Z,0
2018-05-29T01:40:47.104Z,0
2018-05-29T01:41:46.838Z,0
2018-05-29T01:42:46.634Z,0
2018-05-29T01:43:47.257Z,0
2018-05-29T01:44:46.850Z,0
2018-05-29T01:45:46.854Z,0
2018-05-29T01:46:47.110Z,0
2018-05-29T01:47:46.860Z,0
2018-05-29T01:48:47.129Z,0
2018-05-29T01:49:46.856Z,0
2018-05-29T01:50:46.865Z,0
2018-05-29T01:51:46.596Z,0
2018-05-29T01:52:47.123Z,0
2018-05-29T01:53:46.606Z,0
2018-05-29T01:54:46.862Z,0
2018-05-29T01:55:46.965Z,0
2018-05-29T01:56:46.661Z,0
2018-05-29T01:57:46.601Z,0
2018-05-29T01:58:46.605Z,0
2018-05-29T01:59:46.922Z,0
2018-05-29T02:00:47.199Z,0
2018-05-29T02:01:46.650Z,0
2018-05-29T02:02:47.150Z,0
2018-05-29T02:03:47.144Z,0
2018-05-29T02:04:46.880Z,0
2018-05-29T02:05:46.620Z,0
2018-05-29T02:06:46.884Z,0
2018-05-29T02:07:46.619Z,0
2018-05-29T02:08:46.877Z,0
2018-05-29T02:09:46.630Z,0
2018-05-29T02:10:46.646Z,0
2018-05-29T02:11:47.165Z,0
2018-05-29T02:12:46.647Z,0
2018-05-29T02:13:47.164Z,0
2018-05-29T02:14:46.894Z,0
2018-05-29T02:15:46.898Z,0
2018-05-29T02:16:46.904Z,0
2018-05-29T02:17:46.899Z,0
2018-05-29T02:18:46.904Z,0
2018-05-29T02:19:46.911Z,0
2018-05-29T02:20:47.169Z,0
2018-05-29T02:21:46.916Z,0
2018-05-29T02:22:46.937Z,0
2018-05-29T02:23:47.184Z,0
2018-05-29T02:24:46.940Z,0
2018-05-29T02:25:47.178Z,0
2018-05-29T02:26:46.934Z,0
2018-05-29T02:27:47.185Z,0
2018-05-29T02:28:47.190Z,0
2018-05-29T02:29:47.187Z,0
2018-05-29T02:30:46.681Z,0
2018-05-29T02:31:47.199Z,0
2018-05-29T02:32:46.973Z,0
2018-05-29T02:33:47.209Z,0
2018-05-29T02:34:46.952Z,0
2018-05-29T02:35:47.198Z,0
2018-05-29T02:36:46.408Z,0
2018-05-29T02:37:46.943Z,0
2018-05-29T02:38:47.200Z,0
2018-05-29T02:39:46.933Z,4
2018-05-29T02:40:47.209Z,4
2018-05-29T02:41:47.225Z,4
2018-05-29T02:42:46.697Z,0
2018-05-29T02:43:46.779Z,0
2018-05-29T02:44:46.958Z,0
2018-05-29T02:45:47.217Z,4
2018-05-29T02:46:47.241Z,4
2018-05-29T02:47:46.689Z,0
2018-05-29T02:48:46.975Z,4
2018-05-29T02:49:46.961Z,4
2018-05-29T02:50:46.966Z,4
2018-05-29T02:51:47.219Z,4
2018-05-29T02:52:47.241Z,4
2018-05-29T02:53:47.221Z,8
2018-05-29T02:54:46.977Z,8
2018-05-29T02:55:46.963Z,8
2018-05-29T02:56:46.970Z,8
2018-05-29T02:57:47.241Z,8
2018-05-29T02:58:46.989Z,12
2018-05-29T02:59:47.336Z,12
2018-05-29T03:00:47.971Z,12
2018-05-29T03:01:46.718Z,12
2018-05-29T03:02:46.983Z,16
2018-05-29T03:03:47.238Z,20
2018-05-29T03:04:46.720Z,20
2018-05-29T03:05:46.721Z,24
2018-05-29T03:06:46.985Z,28
2018-05-29T03:07:47.020Z,32
2018-05-29T03:08:46.722Z,40
2018-05-29T03:09:47.269Z,40
2018-05-29T03:10:47.280Z,48
2018-05-29T03:11:47.003Z,56
2018-05-29T03:12:47.264Z,64
2018-05-29T03:13:47.005Z,72
2018-05-29T03:14:47.005Z,84
2018-05-29T03:15:46.748Z,96
2018-05-29T03:16:47.035Z,108
2018-05-29T03:17:47.280Z,120
2018-05-29T03:18:46.490Z,132
2018-05-29T03:19:46.768Z,148
2018-05-29T03:20:47.047Z,164
2018-05-29T03:21:47.015Z,180
2018-05-29T03:22:47.026Z,196
2018-05-29T03:23:46.765Z,216
2018-05-29T03:24:46.755Z,240
2018-05-29T03:25:47.023Z,260
2018-05-29T03:26:47.280Z,284
2018-05-29T03:27:47.282Z,304
2018-05-29T03:28:47.299Z,328
2018-05-29T03:29:46.790Z,348
2018-05-29T03:30:47.289Z,368
2018-05-29T03:31:47.466Z,384
2018-05-29T03:32:47.031Z,400
2018-05-29T03:33:47.038Z,424
2018-05-29T03:34:47.053Z,456
2018-05-29T03:35:47.304Z,488
2018-05-29T03:36:47.041Z,528
2018-05-29T03:37:47.297Z,568
2018-05-29T03:38:47.301Z,608
2018-05-29T03:39:47.302Z,648
2018-05-29T03:40:47.303Z,692
2018-05-29T03:41:47.302Z,736
2018-05-29T03:42:46.800Z,788
2018-05-29T03:43:47.666Z,844
2018-05-29T03:44:47.066Z,896
2018-05-29T03:45:47.049Z,948
2018-05-29T03:46:47.311Z,1004
2018-05-29T03:47:47.052Z,1052
2018-05-29T03:48:46.799Z,1100
2018-05-29T03:49:47.331Z,1156
2018-05-29T03:50:47.084Z,1220
2018-05-29T03:51:47.346Z,1280
2018-05-29T03:52:47.328Z,1348
2018-05-29T03:53:46.829Z,1416
2018-05-29T03:54:47.331Z,1488
2018-05-29T03:55:46.833Z,1568
2018-05-29T03:56:47.352Z,1660
2018-05-29T03:57:47.074Z,1820
2018-05-29T03:58:47.353Z,2004
2018-05-29T03:59:47.360Z,2196
2018-05-29T04:00:47.359Z,2300
2018-05-29T04:01:47.139Z,2372
2018-05-29T04:02:46.833Z,2472
2018-05-29T04:03:47.365Z,2640
2018-05-29T04:04:47.105Z,2796
2018-05-29T04:05:46.850Z,2924
2018-05-29T04:06:47.353Z,3016
2018-05-29T04:07:47.106Z,3008
2018-05-29T04:08:47.375Z,3040
2018-05-29T04:09:47.134Z,3532
2018-05-29T04:10:47.399Z,3572
2018-05-29T04:11:47.132Z,3568
2018-05-29T04:12:47.373Z,3584
2018-05-29T04:13:47.114Z,3612
2018-05-29T04:14:47.118Z,3876
2018-05-29T04:15:47.239Z,4204
2018-05-29T04:16:47.136Z,4444
2018-05-29T04:17:47.139Z,4488
2018-05-29T04:18:47.404Z,4388
2018-05-29T04:19:47.403Z,4232
2018-05-29T04:20:47.158Z,4356
2018-05-29T04:21:47.142Z,4552
2018-05-29T04:22:47.147Z,4496
2018-05-29T04:23:47.161Z,3964
2018-05-29T04:24:47.415Z,3672
2018-05-29T04:25:47.149Z,3196
2018-05-29T04:26:47.161Z,2736
2018-05-29T04:27:47.167Z,2608
2018-05-29T04:28:46.915Z,2568
2018-05-29T04:29:47.176Z,2544
2018-05-29T04:30:47.437Z,2532
2018-05-29T04:31:46.935Z,2536
2018-05-29T04:32:47.219Z,2552
2018-05-29T04:33:47.194Z,2568
2018-05-29T04:34:47.196Z,2568
2018-05-29T04:35:47.473Z,2564
2018-05-29T04:36:47.200Z,2572
2018-05-29T04:37:47.458Z,2580
2018-05-29T04:38:47.469Z,2580
2018-05-29T04:39:47.478Z,2592
2018-05-29T04:40:47.231Z,2616
2018-05-29T04:41:47.485Z,2640
2018-05-29T04:42:47.479Z,2668
2018-05-29T04:43:47.706Z,2732
2018-05-29T04:44:46.959Z,2900
2018-05-29T04:45:47.245Z,3192
2018-05-29T04:46:47.250Z,3396
2018-05-29T04:47:46.999Z,3272
2018-05-29T04:48:46.982Z,2876
2018-05-29T04:49:47.352Z,2828
2018-05-29T04:50:47.518Z,2808
2018-05-29T04:51:46.992Z,2828
2018-05-29T04:52:47.252Z,2880
2018-05-29T04:53:47.290Z,2992
2018-05-29T04:54:47.262Z,3020
2018-05-29T04:55:47.520Z,3048
2018-05-29T04:56:47.625Z,3160
2018-05-29T04:57:47.275Z,3356
2018-05-29T04:58:47.300Z,3800
2018-05-29T04:59:47.557Z,4268
2018-05-29T05:00:47.036Z,4744
2018-05-29T05:01:47.077Z,4944
2018-05-29T05:02:47.553Z,5012
2018-05-29T05:03:47.334Z,4816
2018-05-29T05:04:47.292Z,4528
2018-05-29T05:05:47.040Z,4492
2018-05-29T05:06:47.570Z,4656
2018-05-29T05:07:47.307Z,4572
2018-05-29T05:08:47.055Z,4064
2018-05-29T05:09:47.570Z,4140
2018-05-29T05:10:47.585Z,4176
2018-05-29T05:11:47.332Z,4460
2018-05-29T05:12:47.619Z,4916
2018-05-29T05:13:47.068Z,5124
2018-05-29T05:14:47.319Z,5184
2018-05-29T05:15:47.336Z,5300
2018-05-29T05:16:47.340Z,5416
2018-05-29T05:17:47.333Z,5292
2018-05-29T05:18:47.341Z,5120
2018-05-29T05:19:47.381Z,4764
2018-05-29T05:20:47.359Z,4640
2018-05-29T05:21:46.837Z,4680
2018-05-29T05:22:47.093Z,4736
2018-05-29T05:23:47.434Z,4840
2018-05-29T05:24:47.357Z,4932
2018-05-29T05:25:47.110Z,5136
2018-05-29T05:26:47.403Z,5272
2018-05-29T05:27:47.628Z,5336
2018-05-29T05:28:47.373Z,5300
2018-05-29T05:29:47.374Z,5576
2018-05-29T05:30:46.867Z,5884
2018-05-29T05:31:48.343Z,6144
2018-05-29T05:32:46.872Z,6288
2018-05-29T05:33:47.668Z,6368
2018-05-29T05:34:46.876Z,6500
2018-05-29T05:35:47.405Z,6424
2018-05-29T05:36:47.147Z,6512
2018-05-29T05:37:46.889Z,6368
2018-05-29T05:38:47.433Z,6152
2018-05-29T05:39:47.671Z,6212
2018-05-29T05:40:47.510Z,6188
2018-05-29T05:41:47.441Z,6180
2018-05-29T05:42:47.187Z,5844
2018-05-29T05:43:47.246Z,5708
2018-05-29T05:44:47.447Z,5616
2018-05-29T05:45:46.937Z,5692
2018-05-29T05:46:47.497Z,5352
2018-05-29T05:47:47.451Z,5364
2018-05-29T05:48:47.446Z,5052
2018-05-29T05:49:47.194Z,5468
2018-05-29T05:50:47.203Z,5332
2018-05-29T05:51:47.223Z,5452
2018-05-29T05:52:47.336Z,5624
2018-05-29T05:53:47.774Z,6304
2018-05-29T05:54:47.468Z,9080
2018-05-29T05:55:47.745Z,8852
2018-05-29T05:56:47.479Z,8160
2018-05-29T05:57:47.757Z,8244
2018-05-29T05:58:47.747Z,8212
2018-05-29T05:59:47.489Z,8680
2018-05-29T06:00:47.500Z,9112
2018-05-29T06:01:51.262Z,8392
2018-05-29T06:02:47.507Z,9272
2018-05-29T06:03:47.796Z,11332
2018-05-29T06:04:47.799Z,12284
2018-05-29T06:05:47.529Z,13136
2018-05-29T06:06:47.008Z,13876
2018-05-29T06:07:47.292Z,14072
2018-05-29T06:08:47.268Z,14372
2018-05-29T06:09:47.807Z,14376
2018-05-29T06:10:47.023Z,14452
2018-05-29T06:11:47.036Z,14812
2018-05-29T06:12:47.817Z,14852
2018-05-29T06:23:21.447Z,14636
2018-05-29T06:24:21.239Z,15360
2018-05-29T06:25:21.190Z,15328
2018-05-29T06:26:21.179Z,15456
2018-05-29T06:27:21.471Z,15144
2018-05-29T06:28:20.951Z,15648
2018-05-29T06:29:20.958Z,15520
2018-05-29T06:30:21.462Z,15244
2018-05-29T06:31:21.210Z,15712
2018-05-29T06:32:21.221Z,16192
2018-05-29T06:33:21.507Z,16416
2018-05-29T06:34:21.241Z,16480
2018-05-29T06:35:21.243Z,16352
2018-05-29T06:36:21.258Z,15432
2018-05-29T06:37:21.530Z,15332
2018-05-29T06:38:21.374Z,15088
2018-05-29T06:39:21.301Z,14904
2018-05-29T06:40:21.577Z,14600
2018-05-29T06:41:21.284Z,14384
2018-05-29T06:42:21.294Z,14220
2018-05-29T06:43:21.053Z,14004
2018-05-29T06:44:21.572Z,13796
2018-05-29T06:45:21.347Z,13856
2018-05-29T06:46:21.352Z,13952
2018-05-29T06:47:21.104Z,14028
2018-05-29T06:48:21.368Z,13880
2018-05-29T06:49:21.359Z,13648
2018-05-29T06:50:21.374Z,13608
2018-05-29T06:51:21.381Z,13660
2018-05-29T06:52:21.391Z,13232
2018-05-29T06:53:21.135Z,12432
2018-05-29T06:54:21.404Z,11116
2018-05-29T06:55:21.144Z,12496
2018-05-29T06:56:21.691Z,11556
2018-05-29T06:57:21.423Z,13252
2018-05-29T06:58:21.444Z,13196
2018-05-29T06:59:21.695Z,11920
2018-05-29T07:00:20.932Z,10396
2018-05-29T07:01:21.721Z,11976
2018-05-29T07:02:21.456Z,10300
2018-05-29T07:03:21.496Z,9304
2018-05-29T07:04:21.481Z,13544
2018-05-29T07:05:21.491Z,10204
2018-05-29T07:06:21.252Z,11320
2018-05-29T07:07:21.494Z,10552
2018-05-29T07:08:21.594Z,10112
2018-05-29T07:09:21.519Z,10100
2018-05-29T07:10:21.516Z,10220
2018-05-29T07:11:21.545Z,9756
2018-05-29T07:12:21.299Z,8812
2018-05-29T07:13:21.813Z,8620
2018-05-29T07:14:21.027Z,9276
2018-05-29T07:15:21.828Z,10472
2018-05-29T07:16:21.834Z,10684
2018-05-29T07:17:21.584Z,10356
2018-05-29T07:18:21.857Z,9564
2018-05-29T07:19:21.867Z,9964
2018-05-29T07:20:21.333Z,10768
2018-05-29T07:21:21.608Z,10544
2018-05-29T07:22:21.615Z,10060
2018-05-29T07:23:21.370Z,10364
2018-05-29T07:24:21.375Z,10872
2018-05-29T07:25:21.647Z,10364
2018-05-29T07:26:21.389Z,9652
2018-05-29T07:27:22.115Z,9528
2018-05-29T07:28:21.401Z,9964
2018-05-29T07:29:21.415Z,10060
2018-05-29T07:30:21.678Z,10872
2018-05-29T07:31:21.494Z,10648
2018-05-29T07:32:21.678Z,10516
2018-05-29T07:33:21.947Z,10928
2018-05-29T07:34:21.688Z,10944
2018-05-29T07:35:21.463Z,11168
2018-05-29T07:36:21.976Z,11368
2018-05-29T07:37:21.706Z,11828
2018-05-29T07:38:21.809Z,12428
2018-05-29T07:39:21.461Z,13524
2018-05-29T07:40:21.470Z,13928
2018-05-29T07:41:21.748Z,14212
2018-05-29T07:42:21.996Z,14868
2018-05-29T07:43:21.768Z,15088
2018-05-29T07:44:22.020Z,14416
2018-05-29T07:45:21.991Z,14168
2018-05-29T07:46:21.542Z,13796
2018-05-29T07:47:21.789Z,13152
2018-05-29T07:48:21.562Z,12932
2018-05-29T07:49:21.787Z,12676
2018-05-29T07:50:21.799Z,12496
2018-05-29T07:51:21.564Z,12440
2018-05-29T07:52:21.838Z,12232
2018-05-29T07:53:22.159Z,12064
2018-05-29T07:54:21.818Z,11848
2018-05-29T07:55:21.888Z,11776
2018-05-29T07:56:22.096Z,11752
2018-05-29T07:57:21.846Z,11916
2018-05-29T07:58:21.877Z,11572
2018-05-29T07:59:21.852Z,11188
2018-05-29T08:00:21.861Z,10660
2018-05-29T08:01:21.876Z,10848
2018-05-29T08:02:21.887Z,10612
2018-05-29T08:03:21.636Z,10452
2018-05-29T08:04:22.157Z,10316
2018-05-29T08:05:21.895Z,9876
2018-05-29T08:06:21.410Z,9192
2018-05-29T08:07:21.905Z,9044
2018-05-29T08:08:21.709Z,9108
2018-05-29T08:09:21.908Z,9020
2018-05-29T08:10:21.916Z,9232
2018-05-29T08:11:22.187Z,9300
2018-05-29T08:12:22.182Z,9400
2018-05-29T08:13:21.958Z,9684
2018-05-29T08:14:21.686Z,9492
2018-05-29T08:15:21.950Z,9704
2018-05-29T08:16:22.239Z,9648
2018-05-29T08:17:22.211Z,9460
2018-05-29T08:18:21.972Z,9024
2018-05-29T08:19:21.972Z,8768
2018-05-29T08:20:22.237Z,8596
2018-05-29T08:21:21.984Z,8324
2018-05-29T08:22:21.986Z,8060
2018-05-29T08:23:22.015Z,7824
2018-05-29T08:24:21.753Z,7584
2018-05-29T08:25:22.017Z,7340
2018-05-29T08:26:22.309Z,7004
2018-05-29T08:27:22.292Z,6648
2018-05-29T08:28:22.040Z,6448
2018-05-29T08:29:22.294Z,6356
2018-05-29T08:30:22.038Z,6352
2018-05-29T08:31:22.122Z,6492
2018-05-29T08:32:22.312Z,6620
2018-05-29T08:33:22.060Z,6692
2018-05-29T08:34:21.787Z,6864
2018-05-29T08:35:22.054Z,7104
2018-05-29T08:36:21.801Z,7408
2018-05-29T08:37:22.346Z,7760
2018-05-29T08:38:22.136Z,8160
2018-05-29T08:39:22.145Z,8568
2018-05-29T08:40:21.569Z,8984
2018-05-29T08:41:21.831Z,9416
2018-05-29T08:42:21.859Z,9844
2018-05-29T08:43:21.849Z,10256
2018-05-29T08:44:22.382Z,10644
2018-05-29T08:45:21.855Z,11052
2018-05-29T08:46:22.005Z,11500
2018-05-29T08:47:21.880Z,11872
2018-05-29T08:48:22.137Z,12340
2018-05-29T08:49:22.154Z,13224
2018-05-29T08:50:22.139Z,13640
2018-05-29T08:51:21.886Z,13956
2018-05-29T08:52:21.917Z,14028
2018-05-29T08:53:22.158Z,14128
2018-05-29T08:54:21.907Z,14444
2018-05-29T08:55:21.651Z,14504
2018-05-29T08:56:22.164Z,14684
2018-05-29T08:57:22.332Z,14524
2018-05-29T08:58:22.179Z,14364
2018-05-29T08:59:22.459Z,14368
2018-05-29T09:00:22.462Z,14300
2018-05-29T09:01:21.937Z,14548
2018-05-29T09:02:22.201Z,14640
2018-05-29T09:03:23.014Z,14088
2018-05-29T09:04:22.779Z,13972
2018-05-29T09:05:22.220Z,13980
2018-05-29T09:06:21.965Z,14464
2018-05-29T09:07:22.244Z,14412
2018-05-29T09:08:22.556Z,14212
2018-05-29T09:09:21.992Z,14520
2018-05-29T09:10:22.247Z,14524
2018-05-29T09:11:22.524Z,14580
2018-05-29T09:12:21.997Z,14452
2018-05-29T09:13:22.281Z,14432
2018-05-29T09:14:22.536Z,14460
2018-05-29T09:15:22.036Z,14428
2018-05-29T09:16:22.558Z,14384
2018-05-29T09:17:22.301Z,14472
2018-05-29T09:18:22.337Z,14672
2018-05-29T09:19:22.326Z,14900
2018-05-29T09:20:22.312Z,14732
2018-05-29T09:21:22.338Z,14664
2018-05-29T09:22:22.371Z,14212
2018-05-29T09:23:22.062Z,14288
2018-05-29T09:24:22.348Z,14172
2018-05-29T09:25:22.348Z,14820
2018-05-29T09:26:22.632Z,13880
2018-05-29T09:27:22.104Z,13920
2018-05-29T09:28:22.357Z,14060
2018-05-29T09:29:22.367Z,14368
2018-05-29T09:30:22.114Z,14852
2018-05-29T09:31:22.120Z,14556
2018-05-29T09:32:22.384Z,14324
2018-05-29T09:33:22.123Z,14172
2018-05-29T09:34:22.137Z,14016
2018-05-29T09:35:22.441Z,13920
2018-05-29T09:36:22.135Z,13812
2018-05-29T09:37:22.677Z,13616
2018-05-29T09:38:22.668Z,13660
2018-05-29T09:39:22.151Z,13700
2018-05-29T09:40:22.882Z,13528
2018-05-29T09:41:22.168Z,13844
2018-05-29T09:42:21.942Z,13836
2018-05-29T09:43:22.720Z,13960
2018-05-29T09:44:22.497Z,13704
2018-05-29T09:45:22.718Z,14212
2018-05-29T09:46:22.471Z,15512
2018-05-29T09:47:22.203Z,14780
2018-05-29T09:48:22.739Z,16576
2018-05-29T09:49:22.217Z,16416
2018-05-29T09:50:22.489Z,16448
2018-05-29T09:51:22.512Z,17696
2018-05-29T09:52:22.224Z,16384
2018-05-29T09:53:22.820Z,17792
2018-05-29T09:54:22.488Z,17216
2018-05-29T09:55:22.506Z,17728
2018-05-29T09:56:22.522Z,15516
2018-05-29T09:57:22.785Z,15088
2018-05-29T09:58:22.529Z,15080
2018-05-29T09:59:22.524Z,16736
2018-05-29T10:00:22.306Z,14820
2018-05-29T10:01:22.574Z,14568
2018-05-29T10:02:22.821Z,14392
2018-05-29T10:03:22.555Z,17568
2018-05-29T10:04:22.817Z,17952
2018-05-29T10:05:22.834Z,17536
2018-05-29T10:06:22.598Z,17536
2018-05-29T10:07:23.073Z,15324
2018-05-29T10:08:23.140Z,14608
2018-05-29T10:09:22.597Z,14192
2018-05-29T10:10:22.350Z,13176
2018-05-29T10:11:22.860Z,12880
2018-05-29T10:12:22.146Z,12120
2018-05-29T10:13:22.128Z,11588
2018-05-29T10:14:22.396Z,11128
2018-05-29T10:15:22.645Z,11152
2018-05-29T10:16:22.142Z,11020
2018-05-29T10:17:22.391Z,10832
2018-05-29T10:18:22.641Z,11112
2018-05-29T10:19:22.813Z,11104
2018-05-29T10:20:22.421Z,11312
2018-05-29T10:21:22.678Z,11480
2018-05-29T10:22:22.415Z,11972
2018-05-29T10:53:45.551Z,13576
2018-05-29T10:54:45.050Z,13860
2018-05-29T10:55:45.575Z,13960
2018-05-29T10:56:45.286Z,13864
2018-05-29T10:57:45.572Z,13912
2018-05-29T10:58:45.570Z,14016
2018-05-29T10:59:45.302Z,14004
2018-05-29T11:00:45.306Z,13920
2018-05-29T11:01:45.054Z,13824
2018-05-29T11:02:45.316Z,13772
2018-05-29T11:03:45.320Z,13868
2018-05-29T11:04:45.604Z,13972
2018-05-29T11:05:45.332Z,14336
2018-05-29T11:06:45.079Z,14788
2018-05-29T11:07:45.339Z,15288
2018-05-29T11:08:45.345Z,15012
2018-05-29T11:09:45.093Z,14788
2018-05-29T11:10:45.620Z,14692
2018-05-29T11:11:45.637Z,15036
2018-05-29T11:12:45.660Z,15012
2018-05-29T11:13:45.637Z,14988
2018-05-29T11:14:45.122Z,15020
2018-05-29T11:15:45.390Z,15100
2018-05-29T11:16:45.647Z,15160
2018-05-29T11:17:45.168Z,15128
2018-05-29T11:18:45.399Z,14976
2018-05-29T11:19:45.172Z,14984
2018-05-29T11:20:45.409Z,15088
2018-05-29T11:21:45.451Z,15196
2018-05-29T11:22:45.438Z,15112
2018-05-29T11:23:45.761Z,14992
2018-05-29T11:24:45.454Z,14764
2018-05-29T11:25:45.198Z,14468
2018-05-29T11:26:45.778Z,14116
2018-05-29T11:27:45.716Z,13872
2018-05-29T11:28:45.463Z,13900
2018-05-29T11:29:45.462Z,13792
2018-05-29T11:30:45.475Z,13948
2018-05-29T11:31:45.757Z,14272
2018-05-29T11:32:45.475Z,14752
2018-05-29T11:33:45.763Z,15104
2018-05-29T11:34:45.237Z,15272
2018-05-29T11:35:45.764Z,15468
2018-05-29T11:36:45.529Z,15640
2018-05-29T11:37:45.267Z,16096
2018-05-29T11:38:45.517Z,16192
2018-05-29T11:39:45.536Z,17184
2018-05-29T11:40:45.547Z,17376
2018-05-29T11:41:45.292Z,18784
2018-05-29T11:42:45.818Z,17824
2018-05-29T11:43:45.812Z,17920
2018-05-29T11:44:45.823Z,17088
2018-05-29T11:45:45.573Z,16896
2018-05-29T11:46:45.846Z,16416
2018-05-29T11:47:45.855Z,16640
2018-05-29T11:48:45.147Z,15784
2018-05-29T11:49:45.858Z,16544
2018-05-29T11:50:45.586Z,14400
2018-05-29T11:51:45.588Z,14060
2018-05-29T11:52:45.625Z,14508
2018-05-29T11:53:45.620Z,13264
2018-05-29T11:54:45.634Z,13108
2018-05-29T11:55:45.633Z,13264
2018-05-29T11:56:45.627Z,14044
2018-05-29T11:57:45.458Z,14608
2018-05-29T11:58:45.911Z,14656
2018-05-29T11:59:45.416Z,14660
2018-05-29T12:00:46.086Z,14512
2018-05-29T12:01:45.818Z,14308
2018-05-29T12:02:45.665Z,13508
2018-05-29T12:03:45.449Z,13080
2018-05-29T12:04:45.690Z,12560
2018-05-29T12:05:45.422Z,12248
2018-05-29T12:06:45.939Z,12288
2018-05-29T12:07:45.518Z,12532
2018-05-29T12:08:45.749Z,12588
2018-05-29T12:09:45.463Z,12536
2018-05-29T12:10:45.197Z,12808
2018-05-29T12:11:45.477Z,13116
2018-05-29T12:12:45.463Z,14504
2018-05-29T12:13:45.479Z,14656
2018-05-29T12:14:45.494Z,14916
2018-05-29T12:15:45.228Z,14760
2018-05-29T12:16:45.482Z,14628
2018-05-29T12:17:45.492Z,14376
2018-05-29T12:18:46.038Z,13712
2018-05-29T12:19:45.778Z,14040
2018-05-29T12:20:46.032Z,13792
2018-05-29T12:21:46.063Z,12832
2018-05-29T12:22:45.268Z,12804
2018-05-29T12:23:45.860Z,12712
2018-05-29T12:24:45.793Z,12532
2018-05-29T12:25:45.542Z,12480
2018-05-29T12:26:46.079Z,12372
2018-05-29T12:27:45.887Z,12260
2018-05-29T12:28:46.082Z,12148
2018-05-29T12:29:45.832Z,12388
2018-05-29T12:30:45.577Z,13180
2018-05-29T12:31:45.582Z,13128
2018-05-29T12:32:46.107Z,13528
2018-05-29T12:33:45.594Z,13160
2018-05-29T12:34:45.870Z,12980
2018-05-29T12:35:46.152Z,13028
2018-05-29T12:36:46.127Z,13084
2018-05-29T12:37:45.617Z,12976
2018-05-29T12:38:46.343Z,12728
2018-05-29T12:39:45.886Z,12408
2018-05-29T12:40:46.162Z,12340
2018-05-29T12:41:45.643Z,12284
2018-05-29T12:42:45.385Z,12324
2018-05-29T12:43:45.927Z,12332
2018-05-29T12:44:46.173Z,12520
2018-05-29T12:45:45.671Z,12008
2018-05-29T12:46:46.180Z,12412
2018-05-29T12:47:45.673Z,12444
2018-05-29T12:48:45.933Z,12832
2018-05-29T12:49:46.213Z,12576
2018-05-29T12:50:45.945Z,12512
2018-05-29T12:51:46.242Z,12016
2018-05-29T12:52:45.699Z,11408
2018-05-29T12:53:45.754Z,10600
2018-05-29T12:54:45.461Z,10424
2018-05-29T12:55:45.987Z,10364
2018-05-29T12:56:45.989Z,10324
2018-05-29T12:57:46.250Z,11168
2018-05-29T12:58:46.269Z,11940
2018-05-29T12:59:45.491Z,13204
2018-05-29T13:00:45.742Z,13580
2018-05-29T13:01:46.004Z,13836
2018-05-29T13:02:45.752Z,13528
2018-05-29T13:03:46.055Z,13256
2018-05-29T13:04:45.762Z,13220
2018-05-29T13:05:46.041Z,13308
2018-05-29T13:06:45.798Z,13416
2018-05-29T13:07:45.795Z,13488
2018-05-29T13:08:45.850Z,13644
2018-05-29T13:09:46.073Z,13760
2018-05-29T13:10:45.794Z,13640
2018-05-29T13:11:46.320Z,13308
2018-05-29T13:12:46.070Z,12832
2018-05-29T13:13:46.886Z,12472
2018-05-29T13:14:45.552Z,12288
2018-05-29T13:15:46.093Z,12328
2018-05-29T13:16:46.218Z,12860
2018-05-29T13:17:46.098Z,13848
2018-05-29T13:18:46.108Z,13896
2018-05-29T13:19:46.093Z,13800
2018-05-29T13:20:45.598Z,13512
2018-05-29T13:21:46.121Z,13012
2018-05-29T13:22:46.438Z,12636
2018-05-29T13:23:46.162Z,12412
2018-05-29T13:24:45.620Z,12164
2018-05-29T13:25:45.897Z,11868
2018-05-29T13:26:46.152Z,11684
2018-05-29T13:27:46.245Z,11300
2018-05-29T13:28:46.439Z,11004
2018-05-29T13:29:46.176Z,10588
2018-05-29T13:30:46.176Z,10188
2018-05-29T13:31:46.458Z,9864
2018-05-29T13:32:46.361Z,9612
2018-05-29T13:33:46.187Z,9460
2018-05-29T13:34:45.927Z,9356
2018-05-29T13:35:46.447Z,9228
2018-05-29T13:36:46.198Z,8904
2018-05-29T13:37:45.933Z,8236
2018-05-29T13:38:46.255Z,7524
2018-05-29T13:39:45.980Z,7148
2018-05-29T13:40:46.468Z,7076
2018-05-29T13:41:46.265Z,7252
2018-05-29T13:42:46.227Z,7532
2018-05-29T13:43:46.491Z,7760
2018-05-29T13:44:45.993Z,7764
2018-05-29T13:45:46.252Z,7616
2018-05-29T13:46:46.250Z,7404
2018-05-29T13:47:45.982Z,7248
2018-05-29T13:48:45.732Z,7192
2018-05-29T13:49:46.282Z,7240
2018-05-29T13:50:46.268Z,7376
2018-05-29T13:51:46.288Z,7576
2018-05-29T13:52:46.277Z,7748
2018-05-29T13:53:46.282Z,7868
2018-05-29T13:54:46.040Z,7948
2018-05-29T13:55:46.593Z,8040
2018-05-29T13:56:46.032Z,8060
2018-05-29T13:57:46.572Z,8096
2018-05-29T13:58:46.344Z,8140
2018-05-29T13:59:46.060Z,8136
2018-05-29T14:00:46.565Z,8076
2018-05-29T14:01:45.798Z,8000
2018-05-29T14:02:46.089Z,7772
2018-05-29T14:03:46.334Z,7500
2018-05-29T14:04:46.074Z,7288
2018-05-29T14:05:46.321Z,7144
2018-05-29T14:06:46.348Z,7028